sensor_id;sensor_type;location;lat;lon;timestamp;pressure;altitude;pressure_sealevel;temperature;humidity
4836;BME280;2432;51.226;6.904;2022-10-19T00:01:05;102114.03;;;9.42;100.00
4836;BME280;2432;51.226;6.904;2022-10-19T00:03:33;102108.78;;;9.39;100.00
4836;BME280;2432;51.226;6.904;2022-10-19T00:06:09;102108.72;;;9.33;100.00
4836;BME280;2432;51.226;6.904;2022-10-19T00:08:35;102109.59;;;9.35;100.00
4836;BME280;2432;51.226;6.904;2022-10-19T00:11:02;102109.53;;;9.26;100.00
4836;BME280;2432;51.226;6.904;2022-10-19T00:13:28;102110.38;;;9.25;100.00
4836;BME280;2432;51.226;6.904;2022-10-19T00:15:55;102111.28;;;9.28;100.00
4836;BME280;2432;51.226;6.904;2022-10-19T00:18:21;102104.34;;;9.30;100.00
4836;BME280;2432;51.226;6.904;2022-10-19T00:20:48;102106.06;;;9.28;100.00
4836;BME280;2432;51.226;6.904;2022-10-19T00:23:14;102099.13;;;9.30;100.00
4836;BME280;2432;51.226;6.904;2022-10-19T00:25:40;102102.63;;;9.32;100.00
4836;BME280;2432;51.226;6.904;2022-10-19T00:28:07;102099.94;;;9.28;100.00
4836;BME280;2432;51.226;6.904;2022-10-19T00:30:36;102096.47;;;9.27;100.00
4836;BME280;2432;51.226;6.904;2022-10-19T00:33:03;102095.59;;;9.28;100.00
4836;BME280;2432;51.226;6.904;2022-10-19T00:35:30;102086.88;;;9.29;100.00
4836;BME280;2432;51.226;6.904;2022-10-19T00:37:56;102098.22;;;9.28;100.00
4836;BME280;2432;51.226;6.904;2022-10-19T00:40:22;102099.06;;;9.26;100.00
4836;BME280;2432;51.226;6.904;2022-10-19T00:42:53;102091.22;;;9.24;100.00
4836;BME280;2432;51.226;6.904;2022-10-19T00:45:20;102090.34;;;9.22;100.00
4836;BME280;2432;51.226;6.904;2022-10-19T00:47:46;102095.50;;;9.19;100.00
4836;BME280;2432;51.226;6.904;2022-10-19T00:50:13;102099.03;;;9.21;100.00
4836;BME280;2432;51.226;6.904;2022-10-19T00:52:41;102095.56;;;9.22;100.00
4836;BME280;2432;51.226;6.904;2022-10-19T00:55:08;102092.97;;;9.27;100.00
4836;BME280;2432;51.226;6.904;2022-10-19T00:57:35;102095.56;;;9.24;100.00
4836;BME280;2432;51.226;6.904;2022-10-19T01:00:05;102095.56;;;9.25;100.00
4836;BME280;2432;51.226;6.904;2022-10-19T01:02:33;102084.25;;;9.26;100.00
4836;BME280;2432;51.226;6.904;2022-10-19T01:05:00;102084.25;;;9.23;100.00
4836;BME280;2432;51.226;6.904;2022-10-19T01:07:27;102091.22;;;9.24;100.00
4836;BME280;2432;51.226;6.904;2022-10-19T01:09:54;102082.50;;;9.22;100.00
4836;BME280;2432;51.226;6.904;2022-10-19T01:15:02;102081.63;;;9.23;100.00
4836;BME280;2432;51.226;6.904;2022-10-19T01:18:03;102072.91;;;9.21;100.00
4836;BME280;2432;51.226;6.904;2022-10-19T01:32:03;102081.63;;;9.23;100.00
4836;BME280;2432;51.226;6.904;2022-10-19T01:34:45;102085.06;;;9.19;100.00
4836;BME280;2432;51.226;6.904;2022-10-19T01:40:09;102086.81;;;9.20;100.00
4836;BME280;2432;51.226;6.904;2022-10-19T01:45:17;102078.06;;;9.15;100.00
4836;BME280;2432;51.226;6.904;2022-10-19T01:47:46;102072.84;;;9.15;100.00
4836;BME280;2432;51.226;6.904;2022-10-19T01:50:26;102069.28;;;9.10;100.00
4836;BME280;2432;51.226;6.904;2022-10-19T01:52:56;102071.03;;;9.11;100.00
4836;BME280;2432;51.226;6.904;2022-10-19T01:55:25;102065.78;;;9.06;100.00
4836;BME280;2432;51.226;6.904;2022-10-19T01:58:01;102059.69;;;9.04;100.00
4836;BME280;2432;51.226;6.904;2022-10-19T02:00:36;102053.53;;;8.98;100.00
4836;BME280;2432;51.226;6.904;2022-10-19T02:03:05;102054.34;;;8.94;100.00
4836;BME280;2432;51.226;6.904;2022-10-19T02:05:33;102050.03;;;8.96;100.00
4836;BME280;2432;51.226;6.904;2022-10-19T02:08:03;102055.25;;;8.96;100.00
4836;BME280;2432;51.226;6.904;2022-10-19T02:10:33;102061.34;;;8.96;100.00
4836;BME280;2432;51.226;6.904;2022-10-19T02:13:01;102053.53;;;9.02;100.00
4836;BME280;2432;51.226;6.904;2022-10-19T02:15:29;102043.16;;;9.07;100.00
4836;BME280;2432;51.226;6.904;2022-10-19T02:17:59;102044.84;;;9.02;100.00
4836;BME280;2432;51.226;6.904;2022-10-19T02:20:27;102040.47;;;8.99;100.00
4836;BME280;2432;51.226;6.904;2022-10-19T02:22:54;102034.38;;;9.02;100.00
4836;BME280;2432;51.226;6.904;2022-10-19T02:25:21;102056.22;;;9.05;100.00
4836;BME280;2432;51.226;6.904;2022-10-19T02:27:48;102043.09;;;9.02;100.00
4836;BME280;2432;51.226;6.904;2022-10-19T02:30:16;102039.63;;;9.02;100.00
4836;BME280;2432;51.226;6.904;2022-10-19T02:32:44;102043.94;;;8.97;100.00
4836;BME280;2432;51.226;6.904;2022-10-19T02:35:12;102035.22;;;8.98;100.00
4836;BME280;2432;51.226;6.904;2022-10-19T02:37:39;102044.81;;;8.96;100.00
4836;BME280;2432;51.226;6.904;2022-10-19T02:40:06;102036.97;;;8.97;100.00
4836;BME280;2432;51.226;6.904;2022-10-19T02:42:50;102023.91;;;8.97;100.00
4836;BME280;2432;51.226;6.904;2022-10-19T02:45:23;102028.25;;;8.97;100.00
4836;BME280;2432;51.226;6.904;2022-10-19T02:47:57;102025.66;;;9.00;100.00
4836;BME280;2432;51.226;6.904;2022-10-19T02:50:25;102015.22;;;9.00;100.00
4836;BME280;2432;51.226;6.904;2022-10-19T02:52:52;102014.28;;;8.92;100.00
4836;BME280;2432;51.226;6.904;2022-10-19T02:55:18;102006.44;;;8.93;100.00
4836;BME280;2432;51.226;6.904;2022-10-19T02:57:45;102008.16;;;8.90;100.00
4836;BME280;2432;51.226;6.904;2022-10-19T03:00:11;102008.97;;;8.84;100.00
4836;BME280;2432;51.226;6.904;2022-10-19T03:02:38;102002.09;;;8.91;100.00
4836;BME280;2432;51.226;6.904;2022-10-19T03:05:04;102011.59;;;8.86;100.00
4836;BME280;2432;51.226;6.904;2022-10-19T03:07:31;102002.94;;;8.87;100.00
4836;BME280;2432;51.226;6.904;2022-10-19T03:09:58;102009.88;;;8.86;100.00
4836;BME280;2432;51.226;6.904;2022-10-19T03:12:25;102010.63;;;8.76;100.00
4836;BME280;2432;51.226;6.904;2022-10-19T03:14:51;102003.66;;;8.73;100.00
4836;BME280;2432;51.226;6.904;2022-10-19T03:17:18;102009.69;;;8.68;100.00
4836;BME280;2432;51.226;6.904;2022-10-19T03:19:44;102007.13;;;8.71;100.00
4836;BME280;2432;51.226;6.904;2022-10-19T03:22:12;102010.59;;;8.71;100.00
4836;BME280;2432;51.226;6.904;2022-10-19T03:24:40;102006.25;;;8.70;100.00
4836;BME280;2432;51.226;6.904;2022-10-19T03:27:06;102006.25;;;8.69;100.00
4836;BME280;2432;51.226;6.904;2022-10-19T03:29:32;102002.59;;;8.55;100.00
4836;BME280;2432;51.226;6.904;2022-10-19T03:31:59;102010.34;;;8.47;100.00
4836;BME280;2432;51.226;6.904;2022-10-19T03:34:25;102006.88;;;8.48;100.00
4836;BME280;2432;51.226;6.904;2022-10-19T03:36:52;102014.72;;;8.51;100.00
4836;BME280;2432;51.226;6.904;2022-10-19T03:39:18;102011.22;;;8.49;100.00
4836;BME280;2432;51.226;6.904;2022-10-19T03:41:45;102014.69;;;8.48;100.00
4836;BME280;2432;51.226;6.904;2022-10-19T03:44:11;102032.84;;;8.36;100.00
4836;BME280;2432;51.226;6.904;2022-10-19T03:46:38;102019.81;;;8.40;100.00
4836;BME280;2432;51.226;6.904;2022-10-19T03:49:06;102017.28;;;8.43;100.00
4836;BME280;2432;51.226;6.904;2022-10-19T03:51:33;102029.44;;;8.43;100.00
4836;BME280;2432;51.226;6.904;2022-10-19T03:54:02;102027.66;;;8.39;100.00
4836;BME280;2432;51.226;6.904;2022-10-19T03:56:30;102032.75;;;8.33;100.00
4836;BME280;2432;51.226;6.904;2022-10-19T03:58:59;102034.50;;;8.34;100.00
4836;BME280;2432;51.226;6.904;2022-10-19T04:01:29;102034.59;;;8.38;100.00
4836;BME280;2432;51.226;6.904;2022-10-19T04:03:58;102037.94;;;8.30;100.00
4836;BME280;2432;51.226;6.904;2022-10-19T04:06:27;102047.53;;;8.32;100.00
4836;BME280;2432;51.226;6.904;2022-10-19T04:08:54;102048.34;;;8.27;100.00
4836;BME280;2432;51.226;6.904;2022-10-19T04:11:24;102046.53;;;8.21;100.00
4836;BME280;2432;51.226;6.904;2022-10-19T04:13:52;102046.59;;;8.26;100.00
4836;BME280;2432;51.226;6.904;2022-10-19T04:16:20;102047.50;;;8.29;100.00
4836;BME280;2432;51.226;6.904;2022-10-19T04:18:47;102043.16;;;8.31;100.00
4836;BME280;2432;51.226;6.904;2022-10-19T04:21:34;102039.69;;;8.31;100.00
4836;BME280;2432;51.226;6.904;2022-10-19T04:24:04;102031.88;;;8.34;100.00
4836;BME280;2432;51.226;6.904;2022-10-19T04:26:32;102033.59;;;8.32;100.00
4836;BME280;2432;51.226;6.904;2022-10-19T04:28:59;102031.09;;;8.35;100.00
4836;BME280;2432;51.226;6.904;2022-10-19T04:31:27;102024.16;;;8.38;100.00
4836;BME280;2432;51.226;6.904;2022-10-19T04:33:54;102029.41;;;8.40;100.00
4836;BME280;2432;51.226;6.904;2022-10-19T04:36:20;102038.09;;;8.39;100.00
4836;BME280;2432;51.226;6.904;2022-10-19T04:38:47;102038.09;;;8.42;100.00
4836;BME280;2432;51.226;6.904;2022-10-19T04:41:16;102040.56;;;8.31;100.00
4836;BME280;2432;51.226;6.904;2022-10-19T04:43:43;102044.88;;;8.26;100.00
4836;BME280;2432;51.226;6.904;2022-10-19T04:46:17;102039.56;;;8.20;100.00
4836;BME280;2432;51.226;6.904;2022-10-19T04:48:45;102044.75;;;8.17;100.00
4836;BME280;2432;51.226;6.904;2022-10-19T04:51:12;102041.06;;;8.01;100.00
4836;BME280;2432;51.226;6.904;2022-10-19T04:53:41;102040.19;;;8.02;100.00
4836;BME280;2432;51.226;6.904;2022-10-19T04:56:17;102034.09;;;8.00;100.00
4836;BME280;2432;51.226;6.904;2022-10-19T04:58:44;102028.06;;;8.04;100.00
4836;BME280;2432;51.226;6.904;2022-10-19T05:01:13;102021.19;;;8.09;100.00
4836;BME280;2432;51.226;6.904;2022-10-19T05:03:40;102024.69;;;8.13;100.00
4836;BME280;2432;51.226;6.904;2022-10-19T05:06:08;102027.22;;;8.07;100.00
4836;BME280;2432;51.226;6.904;2022-10-19T05:08:35;102025.47;;;8.06;100.00
4836;BME280;2432;51.226;6.904;2022-10-19T05:11:03;102016.75;;;8.05;100.00
4836;BME280;2432;51.226;6.904;2022-10-19T05:13:31;102022.09;;;8.16;100.00
4836;BME280;2432;51.226;6.904;2022-10-19T05:16:00;102016.97;;;8.22;100.00
4836;BME280;2432;51.226;6.904;2022-10-19T05:18:27;102021.38;;;8.26;100.00
4836;BME280;2432;51.226;6.904;2022-10-19T05:23:31;102000.56;;;8.34;100.00
4836;BME280;2432;51.226;6.904;2022-10-19T05:26:16;101996.25;;;8.34;100.00
4836;BME280;2432;51.226;6.904;2022-10-19T05:28:51;102000.69;;;8.38;100.00
4836;BME280;2432;51.226;6.904;2022-10-19T05:31:24;102004.16;;;8.39;100.00
4836;BME280;2432;51.226;6.904;2022-10-19T05:33:51;102005.00;;;8.36;100.00
4836;BME280;2432;51.226;6.904;2022-10-19T05:36:20;102001.31;;;8.20;100.00
4836;BME280;2432;51.226;6.904;2022-10-19T05:38:48;102001.28;;;8.19;100.00
4836;BME280;2432;51.226;6.904;2022-10-19T05:41:16;101998.69;;;8.17;100.00
4836;BME280;2432;51.226;6.904;2022-10-19T05:43:44;102005.53;;;8.09;100.00
4836;BME280;2432;51.226;6.904;2022-10-19T05:46:14;102002.84;;;8.06;100.00
4836;BME280;2432;51.226;6.904;2022-10-19T05:48:44;101990.56;;;7.98;100.00
4836;BME280;2432;51.226;6.904;2022-10-19T05:51:13;101993.19;;;7.99;100.00
4836;BME280;2432;51.226;6.904;2022-10-19T05:53:40;102000.97;;;7.93;100.00
4836;BME280;2432;51.226;6.904;2022-10-19T05:56:10;101998.25;;;7.87;100.00
4836;BME280;2432;51.226;6.904;2022-10-19T05:58:38;101999.13;;;7.86;100.00
4836;BME280;2432;51.226;6.904;2022-10-19T06:01:06;101997.47;;;7.91;100.00
4836;BME280;2432;51.226;6.904;2022-10-19T06:03:34;102003.59;;;7.96;100.00
4836;BME280;2432;51.226;6.904;2022-10-19T06:06:02;102007.16;;;8.01;100.00
4836;BME280;2432;51.226;6.904;2022-10-19T06:08:29;102007.19;;;8.04;100.00
4836;BME280;2432;51.226;6.904;2022-10-19T06:11:05;102004.66;;;8.10;100.00
4836;BME280;2432;51.226;6.904;2022-10-19T06:13:32;101998.50;;;8.05;100.00
4836;BME280;2432;51.226;6.904;2022-10-19T06:15:59;101996.00;;;8.13;100.00
4836;BME280;2432;51.226;6.904;2022-10-19T06:18:25;101986.44;;;8.15;100.00
4836;BME280;2432;51.226;6.904;2022-10-19T06:20:52;101985.53;;;8.10;100.00
4836;BME280;2432;51.226;6.904;2022-10-19T06:23:19;101984.78;;;8.18;100.00
4836;BME280;2432;51.226;6.904;2022-10-19T06:25:45;101986.53;;;8.21;100.00
4836;BME280;2432;51.226;6.904;2022-10-19T06:28:11;101981.34;;;8.24;100.00
4836;BME280;2432;51.226;6.904;2022-10-19T06:30:39;101992.72;;;8.32;100.00
4836;BME280;2432;51.226;6.904;2022-10-19T06:33:06;101988.38;;;8.33;100.00
4836;BME280;2432;51.226;6.904;2022-10-19T06:35:33;101986.75;;;8.38;100.00
4836;BME280;2432;51.226;6.904;2022-10-19T06:37:59;101985.88;;;8.39;100.00
4836;BME280;2432;51.226;6.904;2022-10-19T06:40:26;101999.81;;;8.38;100.00
4836;BME280;2432;51.226;6.904;2022-10-19T06:42:54;102004.16;;;8.39;100.00
4836;BME280;2432;51.226;6.904;2022-10-19T06:45:21;102006.84;;;8.43;100.00
4836;BME280;2432;51.226;6.904;2022-10-19T06:47:47;102009.50;;;8.49;100.00
4836;BME280;2432;51.226;6.904;2022-10-19T06:50:14;102006.06;;;8.52;100.00
4836;BME280;2432;51.226;6.904;2022-10-19T06:52:40;102004.28;;;8.51;100.00
4836;BME280;2432;51.226;6.904;2022-10-19T06:55:07;101999.03;;;8.48;100.00
4836;BME280;2432;51.226;6.904;2022-10-19T06:57:34;101997.28;;;8.47;100.00
4836;BME280;2432;51.226;6.904;2022-10-19T07:00:01;102004.25;;;8.48;100.00
4836;BME280;2432;51.226;6.904;2022-10-19T07:02:27;101995.56;;;8.49;100.00
4836;BME280;2432;51.226;6.904;2022-10-19T07:04:54;101984.25;;;8.50;100.00
4836;BME280;2432;51.226;6.904;2022-10-19T07:07:20;101986.88;;;8.50;100.00
4836;BME280;2432;51.226;6.904;2022-10-19T07:09:47;101995.56;;;8.50;100.00
4836;BME280;2432;51.226;6.904;2022-10-19T07:12:14;101989.53;;;8.53;100.00
4836;BME280;2432;51.226;6.904;2022-10-19T07:14:40;101988.69;;;8.57;100.00
4836;BME280;2432;51.226;6.904;2022-10-19T07:17:07;101992.19;;;8.59;100.00
4836;BME280;2432;51.226;6.904;2022-10-19T07:19:35;101991.31;;;8.57;100.00
4836;BME280;2432;51.226;6.904;2022-10-19T07:22:02;102002.53;;;8.50;100.00
4836;BME280;2432;51.226;6.904;2022-10-19T07:24:28;102003.50;;;8.58;100.00
4836;BME280;2432;51.226;6.904;2022-10-19T07:26:55;102013.16;;;8.65;100.00
4836;BME280;2432;51.226;6.904;2022-10-19T07:29:22;102010.59;;;8.71;100.00
4836;BME280;2432;51.226;6.904;2022-10-19T07:31:48;102019.34;;;8.75;100.00
4836;BME280;2432;51.226;6.904;2022-10-19T07:34:15;102012.44;;;8.80;100.00
4836;BME280;2432;51.226;6.904;2022-10-19T07:36:44;102018.53;;;8.82;100.00
4836;BME280;2432;51.226;6.904;2022-10-19T07:39:11;102009.88;;;8.86;100.00
4836;BME280;2432;51.226;6.904;2022-10-19T07:41:38;102020.34;;;8.89;100.00
4836;BME280;2432;51.226;6.904;2022-10-19T07:44:04;102023.84;;;8.93;100.00
4836;BME280;2432;51.226;6.904;2022-10-19T07:46:31;102020.41;;;8.95;100.00
4836;BME280;2432;51.226;6.904;2022-10-19T07:49:05;102023.91;;;8.99;100.00
4836;BME280;2432;51.226;6.904;2022-10-19T07:51:32;102023.94;;;9.02;100.00
4836;BME280;2432;51.226;6.904;2022-10-19T07:53:58;102019.59;;;9.02;100.00
4836;BME280;2432;51.226;6.904;2022-10-19T07:56:26;102016.16;;;9.05;100.00
4836;BME280;2432;51.226;6.904;2022-10-19T07:58:54;102013.53;;;9.06;100.00
4836;BME280;2432;51.226;6.904;2022-10-19T08:01:26;102017.91;;;9.09;100.00
4836;BME280;2432;51.226;6.904;2022-10-19T08:03:55;102027.53;;;9.13;100.00
4836;BME280;2432;51.226;6.904;2022-10-19T08:06:41;102018.00;;;9.18;100.00
4836;BME280;2432;51.226;6.904;2022-10-19T08:09:08;102022.41;;;9.22;100.00
4836;BME280;2432;51.226;6.904;2022-10-19T08:11:34;102015.44;;;9.24;100.00
4836;BME280;2432;51.226;6.904;2022-10-19T08:14:02;102020.69;;;9.27;100.00
4836;BME280;2432;51.226;6.904;2022-10-19T08:16:30;102024.22;;;9.31;100.00
4836;BME280;2432;51.226;6.904;2022-10-19T08:19:01;102019.91;;;9.41;100.00
4836;BME280;2432;51.226;6.904;2022-10-19T08:21:28;102009.47;;;9.45;100.00
4836;BME280;2432;51.226;6.904;2022-10-19T08:23:55;102006.88;;;9.47;100.00
4836;BME280;2432;51.226;6.904;2022-10-19T08:26:22;102015.63;;;9.49;100.00
4836;BME280;2432;51.226;6.904;2022-10-19T08:28:49;102002.56;;;9.52;100.00
4836;BME280;2432;51.226;6.904;2022-10-19T08:31:20;102000.00;;;9.58;100.00
4836;BME280;2432;51.226;6.904;2022-10-19T08:33:50;101995.69;;;9.65;100.00
4836;BME280;2432;51.226;6.904;2022-10-19T08:36:17;101994.81;;;9.72;100.00
4836;BME280;2432;51.226;6.904;2022-10-19T08:38:47;102001.84;;;9.77;100.00
4836;BME280;2432;51.226;6.904;2022-10-19T08:47:14;101998.44;;;9.97;100.00
4836;BME280;2432;51.226;6.904;2022-10-19T08:49:56;101992.38;;;10.04;100.00
4836;BME280;2432;51.226;6.904;2022-10-19T08:52:27;101995.03;;;10.08;100.00
4836;BME280;2432;51.226;6.904;2022-10-19T08:55:14;101974.09;;;10.10;100.00
4836;BME280;2432;51.226;6.904;2022-10-19T08:57:52;101973.22;;;10.09;100.00
4836;BME280;2432;51.226;6.904;2022-10-19T09:00:41;101974.09;;;10.13;100.00
4836;BME280;2432;51.226;6.904;2022-10-19T09:03:15;101968.00;;;10.11;100.00
4836;BME280;2432;51.226;6.904;2022-10-19T09:06:17;101970.66;;;10.20;100.00
4836;BME280;2432;51.226;6.904;2022-10-19T09:08:50;101956.75;;;10.27;100.00
4836;BME280;2432;51.226;6.904;2022-10-19T09:11:22;101958.50;;;10.40;100.00
4836;BME280;2432;51.226;6.904;2022-10-19T09:14:18;101956.81;;;10.55;100.00
4836;BME280;2432;51.226;6.904;2022-10-19T09:16:42;101952.44;;;10.61;100.00
4836;BME280;2432;51.226;6.904;2022-10-19T09:19:14;101947.19;;;10.58;100.00
4836;BME280;2432;51.226;6.904;2022-10-19T09:21:48;101936.72;;;10.64;100.00
4836;BME280;2432;51.226;6.904;2022-10-19T09:27:22;101930.63;;;10.82;100.00
4836;BME280;2432;51.226;6.904;2022-10-19T09:29:55;101933.22;;;10.94;100.00
4836;BME280;2432;51.226;6.904;2022-10-19T09:32:36;101934.09;;;10.93;100.00
4836;BME280;2432;51.226;6.904;2022-10-19T09:35:20;101939.34;;;10.90;100.00
4836;BME280;2432;51.226;6.904;2022-10-19T09:37:49;101941.97;;;10.92;100.00
4836;BME280;2432;51.226;6.904;2022-10-19T09:40:25;101940.22;;;10.92;100.00
4836;BME280;2432;51.226;6.904;2022-10-19T09:42:52;101928.88;;;11.06;100.00
4836;BME280;2432;51.226;6.904;2022-10-19T09:45:54;101935.88;;;10.96;100.00
4836;BME280;2432;51.226;6.904;2022-10-19T09:48:27;101933.22;;;11.02;100.00
4836;BME280;2432;51.226;6.904;2022-10-19T09:51:10;101936.75;;;11.04;100.00
4836;BME280;2432;51.226;6.904;2022-10-19T09:53:43;101938.47;;;11.07;100.00
4836;BME280;2432;51.226;6.904;2022-10-19T09:56:18;101934.09;;;11.22;100.00
4836;BME280;2432;51.226;6.904;2022-10-19T09:58:53;101934.97;;;11.30;100.00
4836;BME280;2432;51.226;6.904;2022-10-19T10:01:37;101929.69;;;11.33;100.00
4836;BME280;2432;51.226;6.904;2022-10-19T10:04:15;101931.44;;;11.38;100.00
4836;BME280;2432;51.226;6.904;2022-10-19T10:06:43;101926.19;;;11.38;100.00
4836;BME280;2432;51.226;6.904;2022-10-19T10:09:22;101925.28;;;11.46;100.00
4836;BME280;2432;51.226;6.904;2022-10-19T10:11:52;101928.81;;;11.36;100.00
4836;BME280;2432;51.226;6.904;2022-10-19T10:14:32;101924.41;;;11.46;100.00
4836;BME280;2432;51.226;6.904;2022-10-19T10:17:03;101921.81;;;11.44;100.00
4836;BME280;2432;51.226;6.904;2022-10-19T10:19:32;101915.66;;;11.53;100.00
4836;BME280;2432;51.226;6.904;2022-10-19T10:21:59;101913.91;;;11.56;100.00
4836;BME280;2432;51.226;6.904;2022-10-19T10:24:29;101916.56;;;11.47;100.00
4836;BME280;2432;51.226;6.904;2022-10-19T10:26:58;101917.44;;;11.48;100.00
4836;BME280;2432;51.226;6.904;2022-10-19T10:29:27;101922.66;;;11.55;100.00
4836;BME280;2432;51.226;6.904;2022-10-19T10:31:59;101923.56;;;11.47;100.00
4836;BME280;2432;51.226;6.904;2022-10-19T10:34:46;101906.06;;;11.56;100.00
4836;BME280;2432;51.226;6.904;2022-10-19T10:37:37;101920.03;;;11.52;100.00
4836;BME280;2432;51.226;6.904;2022-10-19T10:40:14;101911.31;;;11.44;100.00
4836;BME280;2432;51.226;6.904;2022-10-19T10:42:49;101903.44;;;11.52;100.00
4836;BME280;2432;51.226;6.904;2022-10-19T10:45:37;101891.16;;;11.58;100.00
4836;BME280;2432;51.226;6.904;2022-10-19T10:48:18;101889.41;;;11.62;100.00
4836;BME280;2432;51.226;6.904;2022-10-19T10:50:48;101888.44;;;11.89;100.00
4836;BME280;2432;51.226;6.904;2022-10-19T10:56:04;101883.13;;;11.98;100.00
4836;BME280;2432;51.226;6.904;2022-10-19T11:01:06;101880.41;;;12.15;100.00
4836;BME280;2432;51.226;6.904;2022-10-19T11:03:42;101886.53;;;12.17;100.00
4836;BME280;2432;51.226;6.904;2022-10-19T11:06:12;101882.16;;;12.18;100.00
4836;BME280;2432;51.226;6.904;2022-10-19T11:08:45;101877.75;;;12.23;100.00
4836;BME280;2432;51.226;6.904;2022-10-19T11:11:27;101864.59;;;12.27;100.00
4836;BME280;2432;51.226;6.904;2022-10-19T11:14:00;101866.16;;;12.51;100.00
4836;BME280;2432;51.226;6.904;2022-10-19T11:16:37;101855.56;;;12.59;100.00
4836;BME280;2432;51.226;6.904;2022-10-19T11:19:34;101858.22;;;12.57;100.00
4836;BME280;2432;51.226;6.904;2022-10-19T11:22:37;101853.78;;;12.65;100.00
4836;BME280;2432;51.226;6.904;2022-10-19T11:30:50;101830.94;;;12.73;100.00
4836;BME280;2432;51.226;6.904;2022-10-19T11:33:40;101831.66;;;12.88;100.00
4836;BME280;2432;51.226;6.904;2022-10-19T11:39:06;101826.44;;;12.86;100.00
4836;BME280;2432;51.226;6.904;2022-10-19T11:47:48;101805.38;;;12.89;100.00
4836;BME280;2432;51.226;6.904;2022-10-19T11:50:07;101802.66;;;12.97;100.00
4836;BME280;2432;51.226;6.904;2022-10-19T11:53:21;101804.44;;;12.93;100.00
4836;BME280;2432;51.226;6.904;2022-10-19T12:14:03;101762.97;;;13.21;100.00
4836;BME280;2432;51.226;6.904;2022-10-19T12:16:46;101762.97;;;13.21;100.00
4836;BME280;2432;51.226;6.904;2022-10-19T12:19:30;101755.81;;;13.31;100.00
4836;BME280;2432;51.226;6.904;2022-10-19T12:22:01;101758.47;;;13.28;100.00
4836;BME280;2432;51.226;6.904;2022-10-19T12:24:29;101746.31;;;13.18;100.00
4836;BME280;2432;51.226;6.904;2022-10-19T12:26:56;101754.25;;;13.13;100.00
4836;BME280;2432;51.226;6.904;2022-10-19T12:29:31;101748.56;;;13.48;100.00
4836;BME280;2432;51.226;6.904;2022-10-19T12:31:59;101741.19;;;13.72;100.00
4836;BME280;2432;51.226;6.904;2022-10-19T12:34:35;101734.81;;;13.88;100.00
4836;BME280;2432;51.226;6.904;2022-10-19T12:37:14;101735.69;;;13.87;100.00
4836;BME280;2432;51.226;6.904;2022-10-19T12:42:28;101723.19;;;14.01;100.00
4836;BME280;2432;51.226;6.904;2022-10-19T12:45:28;101713.44;;;14.06;100.00
4836;BME280;2432;51.226;6.904;2022-10-19T12:53:33;101697.59;;;15.02;100.00
4836;BME280;2432;51.226;6.904;2022-10-19T12:56:19;101699.56;;;15.73;100.00
4836;BME280;2432;51.226;6.904;2022-10-19T12:58:56;101687.84;;;16.51;100.00
4836;BME280;2432;51.226;6.904;2022-10-19T13:04:11;101676.94;;;16.94;100.00
4836;BME280;2432;51.226;6.904;2022-10-19T13:09:25;101668.84;;;16.37;100.00
4836;BME280;2432;51.226;6.904;2022-10-19T13:14:53;101668.25;;;15.54;100.00
4836;BME280;2432;51.226;6.904;2022-10-19T13:22:45;101646.38;;;14.72;100.00
4836;BME280;2432;51.226;6.904;2022-10-19T13:25:22;101643.13;;;14.58;100.00
4836;BME280;2432;51.226;6.904;2022-10-19T13:46:12;101626.78;;;13.93;100.00
4836;BME280;2432;51.226;6.904;2022-10-19T13:51:34;101625.38;;;13.73;100.00
4836;BME280;2432;51.226;6.904;2022-10-19T13:56:55;101631.81;;;13.54;100.00
4836;BME280;2432;51.226;6.904;2022-10-19T14:02:46;101625.81;;;13.46;100.00
4836;BME280;2432;51.226;6.904;2022-10-19T14:11:14;101629.34;;;13.43;100.00
4836;BME280;2432;51.226;6.904;2022-10-19T14:13:42;101618.91;;;13.37;100.00
4836;BME280;2432;51.226;6.904;2022-10-19T14:16:20;101622.41;;;13.38;100.00
4836;BME280;2432;51.226;6.904;2022-10-19T14:18:54;101618.91;;;13.37;100.00
4836;BME280;2432;51.226;6.904;2022-10-19T14:21:34;101616.34;;;13.34;100.00
4836;BME280;2432;51.226;6.904;2022-10-19T14:24:18;101617.31;;;13.28;100.00
4836;BME280;2432;51.226;6.904;2022-10-19T14:26:45;101618.16;;;13.29;100.00
4836;BME280;2432;51.226;6.904;2022-10-19T14:29:12;101611.19;;;13.29;100.00
4836;BME280;2432;51.226;6.904;2022-10-19T14:31:38;101611.22;;;13.26;100.00
4836;BME280;2432;51.226;6.904;2022-10-19T14:34:07;101610.44;;;13.21;100.00
4836;BME280;2432;51.226;6.904;2022-10-19T14:36:42;101606.03;;;13.19;100.00
4836;BME280;2432;51.226;6.904;2022-10-19T14:39:31;101603.41;;;13.17;100.00
4836;BME280;2432;51.226;6.904;2022-10-19T14:42:05;101597.31;;;13.15;100.00
4836;BME280;2432;51.226;6.904;2022-10-19T14:44:40;101585.97;;;13.13;100.00
4836;BME280;2432;51.226;6.904;2022-10-19T14:47:20;101586.00;;;13.10;100.00
4836;BME280;2432;51.226;6.904;2022-10-19T14:49:47;101593.91;;;13.09;100.00
4836;BME280;2432;51.226;6.904;2022-10-19T14:52:30;101584.31;;;13.06;100.00
4836;BME280;2432;51.226;6.904;2022-10-19T14:54:59;101583.44;;;13.06;100.00
4836;BME280;2432;51.226;6.904;2022-10-19T14:57:34;101579.91;;;13.08;100.00
4836;BME280;2432;51.226;6.904;2022-10-19T15:00:10;101578.09;;;13.13;100.00
4836;BME280;2432;51.226;6.904;2022-10-19T15:02:59;101576.28;;;13.15;100.00
4836;BME280;2432;51.226;6.904;2022-10-19T15:05:29;101574.50;;;13.17;100.00
4836;BME280;2432;51.226;6.904;2022-10-19T15:08:07;101565.72;;;13.18;100.00
4836;BME280;2432;51.226;6.904;2022-10-19T15:10:44;101565.63;;;13.26;100.00
4836;BME280;2432;51.226;6.904;2022-10-19T15:13:26;101563.69;;;13.39;100.00
4836;BME280;2432;51.226;6.904;2022-10-19T15:15:54;101562.66;;;13.46;100.00
4836;BME280;2432;51.226;6.904;2022-10-19T15:18:23;101566.16;;;13.48;100.00
4836;BME280;2432;51.226;6.904;2022-10-19T15:21:17;101560.78;;;13.55;100.00
4836;BME280;2432;51.226;6.904;2022-10-19T15:23:46;101559.88;;;13.56;100.00
4836;BME280;2432;51.226;6.904;2022-10-19T15:28:50;101541.31;;;13.63;100.00
4836;BME280;2432;51.226;6.904;2022-10-19T15:31:19;101545.78;;;13.59;100.00
4836;BME280;2432;51.226;6.904;2022-10-19T15:33:54;101543.31;;;13.50;100.00
4836;BME280;2432;51.226;6.904;2022-10-19T15:36:23;101538.13;;;13.45;100.00